Time;durP1;ratioP1;P1;durP2;ratioP2;P2;SDS_P1;SDS_P2;PMS_P1;PMS_P2;Temp;Humidity;BMP_temperature;BMP_pressure;BME280_temperature;BME280_humidity;BME280_pressure;Samples;Min_cycle;Max_cycle;Signal;HPM_P1;HPM_P2
2021/03/20 00:01:10;;;;;;;6.18;0.85;;;;;;;;;;5045361;28;20681;-58
2021/03/20 00:03:36;;;;;;;8.05;0.77;;;;;;;;;;5051499;28;20037;-57
2021/03/20 00:06:02;;;;;;;7.63;1.50;;;;;;;;;;5051902;28;20036;-56
2021/03/20 00:08:28;;;;;;;4.10;0.70;;;;;;;;;;5050531;28;20072;-56
2021/03/20 00:10:54;;;;;;;5.75;0.80;;;;;;;;;;5046564;28;20076;-56
2021/03/20 00:13:21;;;;;;;10.77;0.93;;;;;;;;;;5047220;28;20095;-56
2021/03/20 00:15:47;;;;;;;8.35;0.80;;;;;;;;;;5047103;28;20074;-55
2021/03/20 00:18:14;;;;;;;14.73;1.48;;;;;;;;;;5047196;28;20045;-53
2021/03/20 00:20:41;;;;;;;8.43;1.05;;;;;;;;;;5036899;28;20505;-56
2021/03/20 00:23:07;;;;;;;1.85;0.43;;;;;;;;;;5040262;28;20131;-55
2021/03/20 00:25:33;;;;;;;2.75;0.50;;;;;;;;;;5036305;28;20515;-56
2021/03/20 00:28:00;;;;;;;3.35;0.55;;;;;;;;;;5038734;28;20448;-57
2021/03/20 00:30:27;;;;;;;3.15;0.55;;;;;;;;;;5037428;28;20846;-56
2021/03/20 00:32:53;;;;;;;1.88;0.50;;;;;;;;;;5038312;28;20042;-56
2021/03/20 00:35:20;;;;;;;2.90;0.60;;;;;;;;;;5038199;28;20509;-57
2021/03/20 00:37:46;;;;;;;7.95;0.60;;;;;;;;;;5038636;28;20033;-58
2021/03/20 00:40:14;;;;;;;2.53;0.60;;;;;;;;;;5037042;28;20765;-58
2021/03/20 00:42:40;;;;;;;4.25;0.60;;;;;;;;;;5038121;28;20678;-57
2021/03/20 00:45:07;;;;;;;3.38;0.80;;;;;;;;;;5038603;28;20124;-57
2021/03/20 00:47:33;;;;;;;3.30;0.75;;;;;;;;;;5037114;28;20035;-56
2021/03/20 00:49:59;;;;;;;5.18;0.70;;;;;;;;;;5030822;28;20052;-58
2021/03/20 00:52:24;;;;;;;2.00;0.50;;;;;;;;;;5035884;28;20051;-55
2021/03/20 00:54:50;;;;;;;4.72;0.55;;;;;;;;;;5039112;28;20049;-57
2021/03/20 00:57:17;;;;;;;4.35;0.60;;;;;;;;;;5037952;28;20045;-56
2021/03/20 00:59:43;;;;;;;3.58;0.70;;;;;;;;;;5036561;28;20038;-53
2021/03/20 01:02:09;;;;;;;4.03;0.80;;;;;;;;;;5038972;28;20178;-58
2021/03/20 01:04:34;;;;;;;5.82;0.57;;;;;;;;;;5038246;28;20045;-54
2021/03/20 01:07:00;;;;;;;3.95;0.50;;;;;;;;;;5034848;28;20036;-56
2021/03/20 01:09:26;;;;;;;3.10;0.50;;;;;;;;;;5033568;28;20111;-53
2021/03/20 01:11:52;;;;;;;10.18;0.90;;;;;;;;;;5035331;28;20045;-55
2021/03/20 01:14:18;;;;;;;2.80;0.57;;;;;;;;;;5035714;28;20563;-55
2021/03/20 01:16:44;;;;;;;5.28;0.68;;;;;;;;;;5035400;28;20144;-56
2021/03/20 01:19:10;;;;;;;3.13;0.55;;;;;;;;;;5033895;28;20506;-56
2021/03/20 01:21:36;;;;;;;9.38;0.60;;;;;;;;;;5034455;28;20456;-55
2021/03/20 01:24:02;;;;;;;4.80;0.60;;;;;;;;;;5034808;28;20502;-55
2021/03/20 01:26:28;;;;;;;2.05;0.57;;;;;;;;;;5032222;28;20056;-57
2021/03/20 01:28:54;;;;;;;3.40;0.68;;;;;;;;;;5032190;28;20490;-55
2021/03/20 01:31:19;;;;;;;10.05;0.60;;;;;;;;;;5032935;28;20812;-56
2021/03/20 01:33:45;;;;;;;6.07;0.68;;;;;;;;;;5036057;28;20041;-56
2021/03/20 01:36:11;;;;;;;6.38;0.68;;;;;;;;;;5037121;28;20151;-54
2021/03/20 01:38:37;;;;;;;1.88;0.60;;;;;;;;;;5033957;28;20038;-56
2021/03/20 01:41:08;;;;;;;4.05;0.70;;;;;;;;;;5035943;28;20041;-57
2021/03/20 01:43:34;;;;;;;4.25;0.50;;;;;;;;;;5034046;28;20041;-56
2021/03/20 01:46:19;;;;;;;4.75;0.60;;;;;;;;;;5034544;28;20067;-57
2021/03/20 01:48:45;;;;;;;3.85;0.57;;;;;;;;;;5034933;28;20029;-56
2021/03/20 01:51:12;;;;;;;14.82;1.20;;;;;;;;;;5034273;28;20065;-59
2021/03/20 01:53:43;;;;;;;33.75;2.30;;;;;;;;;;5036306;28;20045;-56
2021/03/20 01:56:10;;;;;;;10.90;1.00;;;;;;;;;;5036050;28;20103;-56
2021/03/20 01:58:37;;;;;;;3.80;0.70;;;;;;;;;;5033622;28;20051;-55
2021/03/20 02:01:23;;;;;;;5.53;0.45;;;;;;;;;;5033211;28;20474;-56
2021/03/20 02:03:50;;;;;;;1.25;0.50;;;;;;;;;;5033842;28;20505;-56
2021/03/20 02:06:16;;;;;;;7.75;0.68;;;;;;;;;;5035415;28;20556;-55
2021/03/20 02:08:43;;;;;;;5.20;0.70;;;;;;;;;;5035838;28;20045;-55
2021/03/20 02:11:29;;;;;;;4.82;0.77;;;;;;;;;;5034354;28;20063;-55
2021/03/20 02:14:11;;;;;;;5.28;0.60;;;;;;;;;;5034705;28;20389;-56
2021/03/20 02:17:00;;;;;;;3.95;0.60;;;;;;;;;;5033578;28;20060;-54
2021/03/20 02:19:43;;;;;;;6.78;0.90;;;;;;;;;;5026172;28;20098;-56
2021/03/20 02:22:18;;;;;;;3.70;0.68;;;;;;;;;;5034896;28;20046;-56
2021/03/20 02:25:00;;;;;;;1.98;0.50;;;;;;;;;;5033762;28;20041;-55
2021/03/20 02:27:43;;;;;;;11.45;1.05;;;;;;;;;;5034518;28;20228;-56
2021/03/20 02:30:16;;;;;;;3.83;1.15;;;;;;;;;;5032814;28;20048;-54
2021/03/20 02:32:50;;;;;;;3.75;0.55;;;;;;;;;;5033427;28;20396;-56
2021/03/20 02:35:22;;;;;;;2.03;0.50;;;;;;;;;;5033107;28;22197;-56
2021/03/20 02:37:53;;;;;;;4.82;0.73;;;;;;;;;;5033817;28;20104;-55
2021/03/20 02:40:25;;;;;;;10.13;0.80;;;;;;;;;;5030844;28;23072;-56
2021/03/20 02:42:57;;;;;;;6.03;0.70;;;;;;;;;;5033134;28;20065;-55
2021/03/20 02:45:28;;;;;;;1.88;0.57;;;;;;;;;;5030609;28;20085;-57
2021/03/20 02:48:00;;;;;;;2.40;0.50;;;;;;;;;;5032182;28;20067;-54
2021/03/20 02:50:31;;;;;;;2.75;0.63;;;;;;;;;;5031388;28;20683;-56
2021/03/20 02:53:00;;;;;;;3.42;0.60;;;;;;;;;;5033598;28;20136;-57
2021/03/20 02:55:35;;;;;;;2.80;0.60;;;;;;;;;;5030040;28;20036;-54
2021/03/20 02:58:07;;;;;;;2.78;0.82;;;;;;;;;;5033780;28;20039;-57
2021/03/20 03:00:38;;;;;;;3.72;0.70;;;;;;;;;;5031899;28;20581;-56
2021/03/20 03:03:05;;;;;;;3.40;0.70;;;;;;;;;;5033106;28;20041;-57
2021/03/20 03:05:37;;;;;;;2.83;0.63;;;;;;;;;;5031607;28;20045;-57
2021/03/20 03:08:29;;;;;;;4.57;0.63;;;;;;;;;;5033288;28;20873;-57
2021/03/20 03:11:13;;;;;;;2.53;0.70;;;;;;;;;;5029918;28;20114;-56
2021/03/20 03:13:41;;;;;;;2.88;0.73;;;;;;;;;;5031587;28;20048;-56
2021/03/20 03:16:12;;;;;;;3.70;0.73;;;;;;;;;;5032698;28;20091;-55
2021/03/20 03:18:41;;;;;;;4.82;0.73;;;;;;;;;;5033171;28;21102;-56
2021/03/20 03:21:08;;;;;;;6.10;0.80;;;;;;;;;;5032549;28;20045;-56
2021/03/20 03:23:36;;;;;;;8.15;0.95;;;;;;;;;;5030104;28;20098;-56
2021/03/20 03:26:07;;;;;;;3.50;0.73;;;;;;;;;;5032013;28;20038;-56
2021/03/20 03:28:34;;;;;;;2.97;0.70;;;;;;;;;;5032620;28;20036;-56
2021/03/20 03:31:02;;;;;;;2.40;0.70;;;;;;;;;;5031555;28;21039;-56
2021/03/20 03:33:31;;;;;;;4.00;0.60;;;;;;;;;;5032590;28;20169;-56
2021/03/20 03:35:59;;;;;;;5.22;0.70;;;;;;;;;;5029803;28;20038;-57
2021/03/20 03:38:25;;;;;;;2.35;0.63;;;;;;;;;;5030970;28;20037;-57
2021/03/20 03:40:51;;;;;;;4.90;0.90;;;;;;;;;;5031997;28;20510;-57
2021/03/20 03:43:19;;;;;;;2.53;0.77;;;;;;;;;;5032283;28;20037;-59
2021/03/20 03:45:45;;;;;;;7.05;0.75;;;;;;;;;;5031862;28;20134;-56
2021/03/20 03:48:11;;;;;;;3.00;0.73;;;;;;;;;;5025179;28;20044;-56
2021/03/20 03:50:38;;;;;;;2.42;0.70;;;;;;;;;;5032096;28;20334;-57
2021/03/20 03:53:05;;;;;;;5.75;0.73;;;;;;;;;;5032601;28;20076;-57
2021/03/20 03:55:31;;;;;;;5.25;0.80;;;;;;;;;;5031106;28;20045;-57
2021/03/20 03:57:57;;;;;;;3.08;0.70;;;;;;;;;;5032848;28;20401;-57
2021/03/20 04:00:49;;;;;;;6.85;0.88;;;;;;;;;;5029581;28;20122;-57
2021/03/20 04:03:27;;;;;;;3.15;1.00;;;;;;;;;;5030439;28;20094;-57
2021/03/20 04:06:11;;;;;;;2.50;0.65;;;;;;;;;;5032674;28;20041;-57
2021/03/20 04:08:43;;;;;;;2.30;0.60;;;;;;;;;;5030931;28;20131;-57
2021/03/20 04:11:23;;;;;;;2.45;0.77;;;;;;;;;;5026354;28;20049;-58
2021/03/20 04:14:07;;;;;;;27.33;3.58;;;;;;;;;;5032383;28;20049;-56
2021/03/20 04:16:51;;;;;;;3.03;0.60;;;;;;;;;;5032675;28;20184;-56
2021/03/20 04:19:23;;;;;;;5.25;0.75;;;;;;;;;;5032389;28;20037;-53
2021/03/20 04:21:49;;;;;;;3.38;0.70;;;;;;;;;;5031215;28;20076;-56
2021/03/20 04:24:27;;;;;;;2.30;0.60;;;;;;;;;;5031190;28;20129;-55
2021/03/20 04:27:16;;;;;;;5.90;0.90;;;;;;;;;;5031662;28;20041;-57
2021/03/20 04:30:02;;;;;;;3.47;0.90;;;;;;;;;;5025405;28;21663;-56
2021/03/20 04:32:49;;;;;;;7.28;0.90;;;;;;;;;;5030695;28;20037;-54
2021/03/20 04:35:22;;;;;;;1.98;0.68;;;;;;;;;;5025780;28;20049;-55
2021/03/20 04:37:49;;;;;;;5.20;0.60;;;;;;;;;;5031438;28;20037;-55
2021/03/20 04:40:30;;;;;;;4.00;0.73;;;;;;;;;;5031735;28;20944;-54
2021/03/20 04:42:57;;;;;;;3.30;0.75;;;;;;;;;;5035624;28;20378;-55
2021/03/20 04:45:26;;;;;;;2.70;0.85;;;;;;;;;;5034138;28;20457;-56
2021/03/20 04:47:52;;;;;;;3.83;0.98;;;;;;;;;;5035452;28;20033;-56
2021/03/20 04:50:23;;;;;;;2.95;0.82;;;;;;;;;;5034901;28;20057;-56
2021/03/20 04:52:50;;;;;;;6.28;1.00;;;;;;;;;;5034245;28;20069;-56
2021/03/20 04:55:16;;;;;;;5.50;0.90;;;;;;;;;;5035293;28;20056;-57
2021/03/20 04:57:53;;;;;;;3.92;0.77;;;;;;;;;;5033811;28;20131;-56
2021/03/20 05:00:19;;;;;;;6.50;1.05;;;;;;;;;;5031992;28;20029;-56
2021/03/20 05:02:49;;;;;;;3.60;0.90;;;;;;;;;;5034518;28;20524;-56
2021/03/20 05:05:14;;;;;;;10.60;1.27;;;;;;;;;;5035452;28;20045;-56
2021/03/20 05:07:40;;;;;;;5.18;1.23;;;;;;;;;;5034007;28;20179;-56
2021/03/20 05:10:09;;;;;;;2.58;0.90;;;;;;;;;;5034543;28;20059;-56
2021/03/20 05:12:35;;;;;;;10.27;1.17;;;;;;;;;;5033993;28;20029;-57
2021/03/20 05:15:14;;;;;;;3.33;0.90;;;;;;;;;;5032976;28;20044;-55
2021/03/20 05:17:40;;;;;;;4.85;0.95;;;;;;;;;;5034317;28;20052;-56
2021/03/20 05:20:06;;;;;;;7.32;0.98;;;;;;;;;;5033444;28;20029;-57
2021/03/20 05:22:33;;;;;;;2.05;0.65;;;;;;;;;;5033273;28;20033;-56
2021/03/20 05:24:59;;;;;;;4.55;0.80;;;;;;;;;;5034079;28;20494;-56
2021/03/20 05:27:27;;;;;;;6.90;1.00;;;;;;;;;;5033240;28;20060;-56
2021/03/20 05:29:53;;;;;;;2.60;0.70;;;;;;;;;;5033386;28;20170;-56
2021/03/20 05:32:23;;;;;;;5.40;0.85;;;;;;;;;;5032536;28;20448;-56
2021/03/20 05:34:49;;;;;;;3.15;0.75;;;;;;;;;;5021958;28;20041;-56
2021/03/20 05:37:22;;;;;;;4.65;0.80;;;;;;;;;;5032340;28;20123;-56
2021/03/20 05:39:48;;;;;;;3.50;0.70;;;;;;;;;;5033983;28;20041;-57
2021/03/20 05:42:22;;;;;;;4.80;0.63;;;;;;;;;;5034547;28;20047;-56
2021/03/20 05:44:53;;;;;;;2.45;0.82;;;;;;;;;;5033805;28;20512;-56
2021/03/20 05:47:33;;;;;;;2.80;0.80;;;;;;;;;;5033666;28;20917;-56
2021/03/20 05:50:08;;;;;;;4.72;0.70;;;;;;;;;;5032494;28;20060;-56
2021/03/20 05:52:37;;;;;;;5.95;0.90;;;;;;;;;;5031727;28;20049;-56
2021/03/20 05:55:03;;;;;;;2.53;0.73;;;;;;;;;;5033117;28;20056;-56
2021/03/20 05:57:40;;;;;;;4.68;0.80;;;;;;;;;;5032492;28;20041;-56
2021/03/20 06:00:16;;;;;;;3.08;0.80;;;;;;;;;;5033868;28;20079;-56
2021/03/20 06:02:42;;;;;;;5.53;1.20;;;;;;;;;;5031931;28;20414;-55
2021/03/20 06:05:40;;;;;;;5.53;0.90;;;;;;;;;;5033045;28;20619;-56
2021/03/20 06:08:26;;;;;;;7.85;1.00;;;;;;;;;;5009753;28;20040;-57
2021/03/20 06:10:52;;;;;;;3.65;0.70;;;;;;;;;;5032217;28;20509;-56
2021/03/20 06:13:20;;;;;;;2.00;0.47;;;;;;;;;;5034143;28;20033;-55
2021/03/20 06:15:58;;;;;;;2.00;0.55;;;;;;;;;;5033165;28;20040;-56
2021/03/20 06:18:35;;;;;;;7.40;0.75;;;;;;;;;;5033412;28;20041;-57
2021/03/20 06:21:19;;;;;;;4.22;0.52;;;;;;;;;;5034494;28;20067;-57
2021/03/20 06:23:57;;;;;;;2.08;0.50;;;;;;;;;;5033673;28;20068;-56
2021/03/20 06:26:29;;;;;;;1.83;0.50;;;;;;;;;;5032284;28;20094;-55
2021/03/20 06:28:57;;;;;;;2.65;0.60;;;;;;;;;;5031636;28;20151;-56
2021/03/20 06:31:26;;;;;;;1.60;0.50;;;;;;;;;;5033966;28;20052;-57
2021/03/20 06:33:59;;;;;;;2.65;0.63;;;;;;;;;;5033881;28;20046;-55
2021/03/20 06:36:28;;;;;;;3.75;0.57;;;;;;;;;;5034481;28;20036;-55
2021/03/20 06:39:04;;;;;;;2.78;0.50;;;;;;;;;;5032409;28;20048;-56
2021/03/20 06:41:38;;;;;;;1.95;0.52;;;;;;;;;;5031551;28;20556;-56
2021/03/20 06:44:16;;;;;;;1.85;0.60;;;;;;;;;;5030570;28;20612;-55
2021/03/20 06:46:42;;;;;;;3.92;0.90;;;;;;;;;;5033468;28;20044;-57
2021/03/20 06:49:26;;;;;;;3.17;0.70;;;;;;;;;;5032143;28;20118;-56
2021/03/20 06:51:53;;;;;;;1.50;0.50;;;;;;;;;;5031908;28;20053;-55
2021/03/20 06:54:20;;;;;;;3.30;0.60;;;;;;;;;;5031993;28;20098;-54
2021/03/20 06:56:47;;;;;;;1.92;0.47;;;;;;;;;;5032829;28;20494;-54
2021/03/20 06:59:15;;;;;;;3.30;0.50;;;;;;;;;;5032596;28;20052;-56
2021/03/20 07:01:57;;;;;;;3.22;0.70;;;;;;;;;;5032304;28;20037;-55
2021/03/20 07:04:41;;;;;;;2.60;0.60;;;;;;;;;;5031866;28;20414;-54
2021/03/20 07:07:32;;;;;;;1.90;0.60;;;;;;;;;;5032727;28;20114;-55
2021/03/20 07:09:59;;;;;;;2.65;0.60;;;;;;;;;;5032073;28;20053;-55
2021/03/20 07:12:25;;;;;;;3.83;0.70;;;;;;;;;;5032230;28;20049;-55
2021/03/20 07:14:53;;;;;;;2.25;0.70;;;;;;;;;;5030868;28;20037;-55
2021/03/20 07:17:26;;;;;;;3.28;0.60;;;;;;;;;;5031854;28;20048;-56
2021/03/20 07:19:51;;;;;;;3.45;0.70;;;;;;;;;;5032633;28;23043;-56
2021/03/20 07:22:24;;;;;;;2.08;0.50;;;;;;;;;;5032857;28;20121;-57
2021/03/20 07:24:50;;;;;;;3.13;0.60;;;;;;;;;;5032167;28;20037;-55
2021/03/20 07:27:16;;;;;;;4.30;0.50;;;;;;;;;;5031706;28;20044;-56
2021/03/20 07:29:56;;;;;;;3.85;0.70;;;;;;;;;;5029842;28;20843;-56
2021/03/20 07:32:25;;;;;;;2.97;0.63;;;;;;;;;;5031171;28;20045;-56
2021/03/20 07:34:53;;;;;;;2.60;0.60;;;;;;;;;;5031264;28;20531;-55
2021/03/20 07:37:19;;;;;;;2.42;0.55;;;;;;;;;;5032704;28;22052;-53
2021/03/20 07:39:46;;;;;;;3.90;0.60;;;;;;;;;;5029771;28;20040;-54
2021/03/20 07:42:25;;;;;;;3.25;0.60;;;;;;;;;;5030377;28;20479;-55
2021/03/20 07:44:50;;;;;;;6.75;0.68;;;;;;;;;;5031074;28;21069;-55
2021/03/20 07:47:17;;;;;;;3.92;0.60;;;;;;;;;;5032712;28;20047;-55
2021/03/20 07:49:43;;;;;;;1.25;0.50;;;;;;;;;;5029241;28;20084;-54
2021/03/20 07:52:26;;;;;;;2.50;0.60;;;;;;;;;;5032478;28;20045;-53
2021/03/20 07:55:21;;;;;;;4.70;0.70;;;;;;;;;;5031296;28;20037;-55
2021/03/20 07:57:52;;;;;;;3.92;0.68;;;;;;;;;;5018955;28;20306;-53
2021/03/20 08:00:21;;;;;;;3.88;1.00;;;;;;;;;;5030753;28;20701;-55
2021/03/20 08:02:47;;;;;;;4.00;0.90;;;;;;;;;;5026609;28;20041;-56
2021/03/20 08:05:20;;;;;;;5.03;1.10;;;;;;;;;;5031964;28;20045;-56
2021/03/20 08:07:49;;;;;;;;;;;;;;;;;;5029968;28;20049;-54
2021/03/20 08:10:18;;;;;;;2.80;0.70;;;;;;;;;;5029714;28;19924;-56
2021/03/20 08:12:53;;;;;;;4.38;0.60;;;;;;;;;;5029872;28;20040;-55
2021/03/20 08:15:39;;;;;;;3.83;0.63;;;;;;;;;;5031677;28;20092;-56
2021/03/20 08:18:21;;;;;;;3.75;0.60;;;;;;;;;;5033359;28;20721;-53
2021/03/20 08:21:00;;;;;;;3.67;0.63;;;;;;;;;;5034759;28;20041;-56
2021/03/20 08:23:48;;;;;;;3.03;1.00;;;;;;;;;;5036179;28;20041;-54
2021/03/20 08:26:20;;;;;;;2.97;0.70;;;;;;;;;;5036890;28;20231;-54
2021/03/20 08:28:55;;;;;;;3.63;0.70;;;;;;;;;;5034767;28;20040;-57
2021/03/20 08:31:31;;;;;;;2.17;0.70;;;;;;;;;;5035361;28;20045;-53
2021/03/20 08:34:00;;;;;;;2.35;0.63;;;;;;;;;;5037346;28;20511;-56
2021/03/20 08:36:34;;;;;;;2.15;0.70;;;;;;;;;;5035803;28;20486;-56
2021/03/20 08:39:16;;;;;;;1.20;0.50;;;;;;;;;;5034614;28;20646;-53
2021/03/20 08:41:51;;;;;;;1.88;0.60;;;;;;;;;;5036811;28;20043;-56
2021/03/20 08:44:35;;;;;;;5.47;0.50;;;;;;;;;;5038513;28;20043;-56
2021/03/20 08:47:13;;;;;;;1.63;0.57;;;;;;;;;;5035535;28;20037;-57
2021/03/20 08:49:55;;;;;;;1.75;0.40;;;;;;;;;;5034856;28;20041;-54
2021/03/20 08:52:27;;;;;;;2.30;0.60;;;;;;;;;;5037084;28;20049;-57
2021/03/20 08:55:14;;;;;;;3.10;0.80;;;;;;;;;;5035628;28;20042;-55
2021/03/20 08:57:43;;;;;;;2.25;0.60;;;;;;;;;;5033752;28;20037;-57
2021/03/20 09:00:28;;;;;;;1.48;0.50;;;;;;;;;;5034358;28;20041;-55
2021/03/20 09:03:00;;;;;;;3.88;1.00;;;;;;;;;;5035028;28;20048;-55
2021/03/20 09:05:38;;;;;;;1.92;0.60;;;;;;;;;;5032927;28;20033;-56
2021/03/20 09:08:23;;;;;;;2.30;0.55;;;;;;;;;;5032914;28;20044;-56
2021/03/20 09:11:12;;;;;;;1.25;0.50;;;;;;;;;;5034461;28;20179;-53
2021/03/20 09:13:41;;;;;;;1.83;0.50;;;;;;;;;;5035662;28;20592;-57
2021/03/20 09:16:18;;;;;;;1.48;0.40;;;;;;;;;;5034289;28;20088;-57
2021/03/20 09:18:44;;;;;;;1.75;0.60;;;;;;;;;;5030581;28;20132;-56
2021/03/20 09:21:11;;;;;;;2.00;0.50;;;;;;;;;;5034554;28;20037;-57
2021/03/20 09:23:48;;;;;;;2.22;0.47;;;;;;;;;;5030606;28;20044;-56
2021/03/20 09:26:34;;;;;;;2.55;0.50;;;;;;;;;;5035870;28;20521;-54
2021/03/20 09:29:06;;;;;;;1.67;0.50;;;;;;;;;;5027403;28;20201;-55
2021/03/20 09:31:32;;;;;;;1.73;0.50;;;;;;;;;;5043570;28;20053;-56
2021/03/20 09:33:59;;;;;;;3.13;0.52;;;;;;;;;;5036054;28;20042;-57
2021/03/20 09:36:34;;;;;;;2.20;0.60;;;;;;;;;;5035727;28;20052;-56
2021/03/20 09:39:00;;;;;;;3.50;0.70;;;;;;;;;;5032895;28;20064;-56
2021/03/20 09:41:28;;;;;;;2.28;0.60;;;;;;;;;;5036260;28;21029;-55
2021/03/20 09:44:01;;;;;;;2.70;0.68;;;;;;;;;;5036892;28;20060;-57
2021/03/20 09:46:39;;;;;;;2.07;0.50;;;;;;;;;;5034807;28;21048;-59
2021/03/20 09:49:08;;;;;;;2.70;0.50;;;;;;;;;;5025743;28;20285;-55
2021/03/20 09:51:59;;;;;;;1.05;0.40;;;;;;;;;;5033777;28;20048;-57
2021/03/20 09:54:29;;;;;;;1.55;0.50;;;;;;;;;;5031213;28;20037;-55
2021/03/20 09:59:44;;;;;;;2.28;0.50;;;;;;;;;;4991382;28;20168;-52
2021/03/20 10:02:10;;;;;;;2.35;0.68;;;;;;;;;;5029362;28;20490;-55
2021/03/20 10:04:37;;;;;;;2.15;0.50;;;;;;;;;;5031161;28;20048;-56
2021/03/20 10:07:26;;;;;;;2.47;0.80;;;;;;;;;;5031044;28;20043;-58
2021/03/20 10:09:53;;;;;;;1.33;0.40;;;;;;;;;;5027810;28;20544;-55
2021/03/20 10:12:21;;;;;;;2.42;0.77;;;;;;;;;;5030194;28;20071;-57
2021/03/20 10:15:09;;;;;;;2.45;0.50;;;;;;;;;;5013542;28;20091;-55
2021/03/20 10:17:55;;;;;;;1.70;0.50;;;;;;;;;;5017878;28;20040;-56
2021/03/20 10:20:22;;;;;;;1.42;0.50;;;;;;;;;;5026734;28;20079;-56
2021/03/20 10:22:51;;;;;;;2.15;0.88;;;;;;;;;;5030896;28;21022;-58
2021/03/20 10:25:25;;;;;;;1.23;0.40;;;;;;;;;;5019295;28;20045;-57
2021/03/20 10:28:01;;;;;;;1.75;0.40;;;;;;;;;;5028668;28;20478;-52
2021/03/20 10:30:32;;;;;;;2.03;0.50;;;;;;;;;;5030411;28;20057;-57
2021/03/20 10:32:59;;;;;;;1.60;0.50;;;;;;;;;;5032735;28;20111;-55
2021/03/20 10:35:26;;;;;;;2.00;0.60;;;;;;;;;;5030539;28;20037;-54
2021/03/20 10:37:51;;;;;;;1.30;0.43;;;;;;;;;;5030436;28;20036;-57
2021/03/20 10:40:25;;;;;;;4.18;0.70;;;;;;;;;;5026323;28;20680;-59
2021/03/20 10:42:53;;;;;;;1.80;0.52;;;;;;;;;;5035322;28;20508;-58
2021/03/20 10:45:37;;;;;;;3.25;0.60;;;;;;;;;;5032863;28;20640;-56
2021/03/20 10:48:25;;;;;;;1.98;0.50;;;;;;;;;;5033037;28;20722;-56
2021/03/20 10:50:56;;;;;;;1.20;0.45;;;;;;;;;;5033505;28;20052;-56
2021/03/20 10:53:24;;;;;;;3.25;0.80;;;;;;;;;;5033151;28;20046;-55
2021/03/20 10:55:54;;;;;;;1.58;0.47;;;;;;;;;;5033543;28;20037;-56
2021/03/20 10:58:29;;;;;;;4.13;1.40;;;;;;;;;;5029491;28;20044;-57
2021/03/20 11:00:55;;;;;;;3.60;0.60;;;;;;;;;;5033337;28;20056;-57
2021/03/20 11:03:41;;;;;;;5.15;1.90;;;;;;;;;;5032158;28;20044;-54
2021/03/20 11:06:27;;;;;;;2.60;0.85;;;;;;;;;;5010966;28;20650;-57
2021/03/20 11:09:05;;;;;;;1.75;0.50;;;;;;;;;;5012540;28;20037;-54
2021/03/20 11:11:32;;;;;;;4.43;1.50;;;;;;;;;;5012481;28;20041;-54
2021/03/20 11:14:06;;;;;;;3.28;0.70;;;;;;;;;;5012956;28;20148;-60
2021/03/20 11:16:33;;;;;;;3.72;0.50;;;;;;;;;;5012651;28;20137;-56
2021/03/20 11:19:25;;;;;;;1.23;0.50;;;;;;;;;;5011759;28;20085;-55
2021/03/20 11:21:58;;;;;;;1.90;0.50;;;;;;;;;;5008888;28;20061;-55
2021/03/20 11:24:34;;;;;;;1.23;0.50;;;;;;;;;;5012226;28;20119;-55
2021/03/20 11:27:14;;;;;;;1.23;0.40;;;;;;;;;;5012549;28;20159;-56
2021/03/20 11:29:40;;;;;;;3.85;0.40;;;;;;;;;;5010966;28;20038;-54
2021/03/20 11:32:07;;;;;;;1.80;0.40;;;;;;;;;;5013011;28;20449;-54
2021/03/20 11:34:39;;;;;;;2.15;0.68;;;;;;;;;;5012666;28;20030;-56
2021/03/20 11:37:09;;;;;;;2.45;0.60;;;;;;;;;;4994632;28;20084;-52
2021/03/20 11:39:35;;;;;;;4.28;0.85;;;;;;;;;;4993156;28;20029;-56
2021/03/20 11:42:06;;;;;;;3.03;0.95;;;;;;;;;;5012150;28;20046;-55
2021/03/20 11:44:32;;;;;;;7.10;1.23;;;;;;;;;;5026987;28;20457;-56
2021/03/20 11:47:00;;;;;;;4.28;0.80;;;;;;;;;;5031998;28;20037;-53
2021/03/20 11:49:26;;;;;;;3.13;0.77;;;;;;;;;;5030622;28;20036;-57
2021/03/20 11:51:53;;;;;;;2.53;0.60;;;;;;;;;;5030483;28;20045;-58
2021/03/20 11:54:18;;;;;;;4.32;1.10;;;;;;;;;;5029698;28;20044;-54
2021/03/20 11:56:52;;;;;;;1.48;0.52;;;;;;;;;;5032906;28;20550;-57
2021/03/20 11:59:38;;;;;;;3.45;0.50;;;;;;;;;;5032186;28;20086;-53
2021/03/20 12:02:04;;;;;;;2.92;0.50;;;;;;;;;;5030678;28;20047;-57
2021/03/20 12:04:32;;;;;;;1.23;0.43;;;;;;;;;;5032103;28;20544;-55
2021/03/20 12:07:22;;;;;;;1.52;0.50;;;;;;;;;;5031770;28;20041;-56
2021/03/20 12:09:48;;;;;;;2.50;0.50;;;;;;;;;;5031454;28;20049;-57
2021/03/20 12:12:14;;;;;;;1.50;0.60;;;;;;;;;;5031669;28;20155;-56
2021/03/20 12:14:42;;;;;;;3.10;0.60;;;;;;;;;;5031015;28;20131;-56
2021/03/20 12:17:11;;;;;;;1.25;0.40;;;;;;;;;;5032638;28;20041;-55
2021/03/20 12:19:53;;;;;;;2.53;0.40;;;;;;;;;;5030894;28;20033;-55
2021/03/20 12:22:43;;;;;;;1.02;0.40;;;;;;;;;;5030000;28;20041;-54
2021/03/20 12:25:28;;;;;;;5.20;0.63;;;;;;;;;;5027716;28;20037;-57
2021/03/20 12:28:13;;;;;;;3.58;0.50;;;;;;;;;;5032445;28;20045;-57
2021/03/20 12:30:39;;;;;;;2.25;0.60;;;;;;;;;;5032258;28;20460;-56
2021/03/20 12:33:11;;;;;;;3.10;0.80;;;;;;;;;;5033617;28;20052;-54
2021/03/20 12:35:41;;;;;;;2.17;0.40;;;;;;;;;;5031876;28;20155;-56
2021/03/20 12:38:18;;;;;;;1.80;0.45;;;;;;;;;;5033954;28;20136;-55
2021/03/20 12:40:53;;;;;;;1.92;0.50;;;;;;;;;;5033010;28;20078;-56
2021/03/20 12:43:27;;;;;;;2.10;0.50;;;;;;;;;;5032040;28;20147;-54
2021/03/20 12:45:52;;;;;;;;;;;;;;;;;;5032662;28;20064;-55
2021/03/20 12:48:18;;;;;;;2.05;0.43;;;;;;;;;;5030354;28;19921;-54
2021/03/20 12:50:45;;;;;;;2.70;0.60;;;;;;;;;;5033166;28;20069;-54
2021/03/20 12:53:14;;;;;;;5.72;0.50;;;;;;;;;;5030419;28;20308;-53
2021/03/20 12:55:40;;;;;;;5.13;0.70;;;;;;;;;;5031720;28;20047;-54
2021/03/20 12:58:06;;;;;;;5.70;0.80;;;;;;;;;;5032091;28;20570;-54
2021/03/20 13:00:32;;;;;;;2.67;0.65;;;;;;;;;;5030005;28;20091;-54
2021/03/20 13:03:00;;;;;;;2.20;0.50;;;;;;;;;;5034313;28;20045;-53
2021/03/20 13:05:33;;;;;;;6.15;0.70;;;;;;;;;;5030074;28;20068;-55
2021/03/20 13:07:59;;;;;;;2.33;0.50;;;;;;;;;;5037704;28;20037;-55
2021/03/20 13:10:25;;;;;;;3.70;0.50;;;;;;;;;;5036699;28;20529;-53
2021/03/20 13:12:51;;;;;;;3.90;0.68;;;;;;;;;;5035082;28;20049;-55
2021/03/20 13:15:18;;;;;;;5.40;0.70;;;;;;;;;;5039091;28;20034;-54
2021/03/20 13:17:44;;;;;;;3.33;0.63;;;;;;;;;;5035274;28;20114;-55
2021/03/20 13:20:10;;;;;;;4.88;0.60;;;;;;;;;;5034783;28;20033;-54
2021/03/20 13:22:36;;;;;;;6.50;1.02;;;;;;;;;;5035642;28;20045;-54
2021/03/20 13:25:03;;;;;;;5.72;0.85;;;;;;;;;;5036340;28;20044;-55
2021/03/20 13:27:29;;;;;;;6.35;0.80;;;;;;;;;;5011859;28;20405;-55
2021/03/20 13:29:55;;;;;;;5.95;1.05;;;;;;;;;;5047823;28;20085;-56
2021/03/20 13:32:21;;;;;;;7.63;1.00;;;;;;;;;;5035830;28;20041;-52
2021/03/20 13:34:47;;;;;;;3.90;0.80;;;;;;;;;;5035125;28;20037;-56
2021/03/20 13:37:13;;;;;;;5.05;0.70;;;;;;;;;;5035370;28;20091;-56
2021/03/20 13:39:39;;;;;;;3.92;1.05;;;;;;;;;;5036941;28;20091;-55
2021/03/20 13:42:05;;;;;;;4.85;0.93;;;;;;;;;;5034760;28;20078;-53
2021/03/20 13:44:31;;;;;;;6.53;0.90;;;;;;;;;;5034481;28;20079;-55
2021/03/20 13:47:00;;;;;;;3.10;0.73;;;;;;;;;;5034694;28;20041;-54
2021/03/20 13:49:26;;;;;;;9.38;1.13;;;;;;;;;;5034065;28;20167;-52
2021/03/20 13:51:52;;;;;;;5.97;0.70;;;;;;;;;;5033768;28;20053;-51
2021/03/20 13:54:18;;;;;;;3.00;0.70;;;;;;;;;;5032218;28;20650;-51
2021/03/20 13:56:44;;;;;;;7.60;0.80;;;;;;;;;;5036194;28;20045;-55
2021/03/20 13:59:10;;;;;;;3.05;0.70;;;;;;;;;;5035514;28;20040;-55
2021/03/20 14:01:36;;;;;;;7.75;0.80;;;;;;;;;;5033918;28;20446;-52
2021/03/20 14:04:02;;;;;;;6.75;0.85;;;;;;;;;;5034801;28;20612;-55
2021/03/20 14:06:28;;;;;;;5.68;1.00;;;;;;;;;;5032974;28;20179;-54
2021/03/20 14:08:55;;;;;;;8.40;0.95;;;;;;;;;;5034317;28;20072;-57
2021/03/20 14:11:21;;;;;;;6.68;1.10;;;;;;;;;;5033014;28;20668;-55
2021/03/20 14:13:47;;;;;;;6.65;1.08;;;;;;;;;;5034343;28;20041;-55
2021/03/20 14:16:13;;;;;;;5.25;0.70;;;;;;;;;;5048967;28;20113;-57
2021/03/20 14:18:39;;;;;;;6.65;1.20;;;;;;;;;;5034071;28;20119;-59
2021/03/20 14:21:07;;;;;;;5.75;0.95;;;;;;;;;;5032649;28;20037;-55
2021/03/20 14:23:33;;;;;;;7.35;0.98;;;;;;;;;;5034348;28;21125;-54
2021/03/20 14:25:59;;;;;;;5.93;1.30;;;;;;;;;;5033598;28;20616;-55
2021/03/20 14:28:29;;;;;;;6.25;0.80;;;;;;;;;;5033401;28;20041;-55
2021/03/20 14:31:02;;;;;;;5.20;1.90;;;;;;;;;;5033413;28;20137;-57
2021/03/20 14:33:29;;;;;;;3.55;0.70;;;;;;;;;;5033916;28;20075;-55
2021/03/20 14:35:56;;;;;;;4.15;0.70;;;;;;;;;;5033686;28;20106;-55
2021/03/20 14:38:23;;;;;;;7.10;0.90;;;;;;;;;;5033038;28;20041;-54
2021/03/20 14:40:50;;;;;;;10.40;0.80;;;;;;;;;;5033199;28;20056;-56
2021/03/20 14:43:16;;;;;;;4.45;0.80;;;;;;;;;;5032581;28;20041;-56
2021/03/20 14:45:42;;;;;;;5.65;0.80;;;;;;;;;;5034291;28;20048;-52
2021/03/20 14:48:08;;;;;;;5.18;0.80;;;;;;;;;;5032595;28;20602;-53
2021/03/20 14:50:35;;;;;;;3.83;0.93;;;;;;;;;;5031561;28;20045;-55
2021/03/20 14:53:02;;;;;;;4.63;1.20;;;;;;;;;;5032286;28;20409;-54
2021/03/20 14:55:28;;;;;;;7.65;2.10;;;;;;;;;;5032468;28;20060;-53
2021/03/20 14:57:54;;;;;;;6.80;1.30;;;;;;;;;;5033337;28;20076;-54
2021/03/20 15:00:25;;;;;;;3.17;0.80;;;;;;;;;;5031463;28;20128;-54
2021/03/20 15:02:51;;;;;;;14.55;1.35;;;;;;;;;;5032252;28;21016;-56
2021/03/20 15:05:17;;;;;;;8.13;2.30;;;;;;;;;;5033604;28;20055;-52
2021/03/20 15:07:43;;;;;;;6.75;0.95;;;;;;;;;;5032735;28;20097;-56
2021/03/20 15:10:11;;;;;;;5.60;0.70;;;;;;;;;;5030631;28;20557;-56